sensor_id;sensor_type;location;lat;lon;timestamp;temperature;humidity
9329;DHT22;4703;48.748;19.142;2022-08-21T00:01:52;20.00;99.90
9329;DHT22;4703;48.748;19.142;2022-08-21T00:04:19;20.00;99.90
9329;DHT22;4703;48.748;19.142;2022-08-21T00:06:49;20.00;99.90
9329;DHT22;4703;48.748;19.142;2022-08-21T00:09:17;20.00;99.90
9329;DHT22;4703;48.748;19.142;2022-08-21T00:11:45;20.00;99.90
9329;DHT22;4703;48.748;19.142;2022-08-21T00:14:13;20.00;99.90
9329;DHT22;4703;48.748;19.142;2022-08-21T00:16:40;19.90;99.90
9329;DHT22;4703;48.748;19.142;2022-08-21T00:19:08;20.00;99.90
9329;DHT22;4703;48.748;19.142;2022-08-21T00:21:36;19.90;99.90
9329;DHT22;4703;48.748;19.142;2022-08-21T00:24:04;19.90;99.90
9329;DHT22;4703;48.748;19.142;2022-08-21T00:26:33;19.90;99.90
9329;DHT22;4703;48.748;19.142;2022-08-21T00:29:02;19.90;99.90
9329;DHT22;4703;48.748;19.142;2022-08-21T00:31:30;20.40;99.90
9329;DHT22;4703;48.748;19.142;2022-08-21T00:33:58;19.80;99.90
9329;DHT22;4703;48.748;19.142;2022-08-21T00:36:27;20.90;99.90
9329;DHT22;4703;48.748;19.142;2022-08-21T00:38:56;19.90;99.90
9329;DHT22;4703;48.748;19.142;2022-08-21T00:41:23;19.90;99.90
9329;DHT22;4703;48.748;19.142;2022-08-21T00:44:06;19.80;99.90
9329;DHT22;4703;48.748;19.142;2022-08-21T00:46:37;19.90;99.90
9329;DHT22;4703;48.748;19.142;2022-08-21T00:49:06;19.80;99.90
9329;DHT22;4703;48.748;19.142;2022-08-21T00:51:39;19.80;99.90
9329;DHT22;4703;48.748;19.142;2022-08-21T00:54:12;19.80;99.90
9329;DHT22;4703;48.748;19.142;2022-08-21T00:56:48;19.80;99.90
9329;DHT22;4703;48.748;19.142;2022-08-21T00:59:18;19.90;99.90
9329;DHT22;4703;48.748;19.142;2022-08-21T01:01:46;19.80;99.90
9329;DHT22;4703;48.748;19.142;2022-08-21T01:04:14;19.90;99.90
9329;DHT22;4703;48.748;19.142;2022-08-21T01:06:43;19.90;99.90
9329;DHT22;4703;48.748;19.142;2022-08-21T01:09:11;19.90;99.90
9329;DHT22;4703;48.748;19.142;2022-08-21T01:11:39;19.90;99.90
9329;DHT22;4703;48.748;19.142;2022-08-21T01:14:10;19.80;99.90
9329;DHT22;4703;48.748;19.142;2022-08-21T01:16:45;19.80;99.90
9329;DHT22;4703;48.748;19.142;2022-08-21T01:19:13;19.80;99.90
9329;DHT22;4703;48.748;19.142;2022-08-21T01:21:41;19.80;99.90
9329;DHT22;4703;48.748;19.142;2022-08-21T01:24:10;19.80;99.90
9329;DHT22;4703;48.748;19.142;2022-08-21T01:26:37;19.80;99.90
9329;DHT22;4703;48.748;19.142;2022-08-21T01:29:42;19.80;99.90
9329;DHT22;4703;48.748;19.142;2022-08-21T01:32:14;19.80;99.90
9329;DHT22;4703;48.748;19.142;2022-08-21T01:34:45;19.80;99.90
9329;DHT22;4703;48.748;19.142;2022-08-21T01:37:14;19.90;99.90
9329;DHT22;4703;48.748;19.142;2022-08-21T01:39:44;19.80;99.90
9329;DHT22;4703;48.748;19.142;2022-08-21T01:42:11;19.80;99.90
9329;DHT22;4703;48.748;19.142;2022-08-21T01:44:39;19.80;99.90
9329;DHT22;4703;48.748;19.142;2022-08-21T01:47:09;19.80;99.90
9329;DHT22;4703;48.748;19.142;2022-08-21T01:49:38;19.80;99.90
9329;DHT22;4703;48.748;19.142;2022-08-21T01:52:06;19.80;99.90
9329;DHT22;4703;48.748;19.142;2022-08-21T01:54:36;19.70;99.90
9329;DHT22;4703;48.748;19.142;2022-08-21T01:57:04;19.70;99.90
9329;DHT22;4703;48.748;19.142;2022-08-21T01:59:32;19.70;99.90
9329;DHT22;4703;48.748;19.142;2022-08-21T02:02:00;20.30;99.90
9329;DHT22;4703;48.748;19.142;2022-08-21T02:04:28;19.70;99.90
9329;DHT22;4703;48.748;19.142;2022-08-21T02:06:55;19.70;99.90
9329;DHT22;4703;48.748;19.142;2022-08-21T02:09:22;19.70;99.90
9329;DHT22;4703;48.748;19.142;2022-08-21T02:11:50;19.60;99.90
9329;DHT22;4703;48.748;19.142;2022-08-21T02:14:18;19.70;99.90
9329;DHT22;4703;48.748;19.142;2022-08-21T02:16:59;19.60;99.90
9329;DHT22;4703;48.748;19.142;2022-08-21T02:19:36;19.60;99.90
9329;DHT22;4703;48.748;19.142;2022-08-21T02:22:10;19.60;99.90
9329;DHT22;4703;48.748;19.142;2022-08-21T02:24:38;19.60;99.90
9329;DHT22;4703;48.748;19.142;2022-08-21T02:27:22;19.60;99.90
9329;DHT22;4703;48.748;19.142;2022-08-21T02:29:54;19.60;99.90
9329;DHT22;4703;48.748;19.142;2022-08-21T02:32:23;19.50;99.90
9329;DHT22;4703;48.748;19.142;2022-08-21T02:34:51;19.50;99.90
9329;DHT22;4703;48.748;19.142;2022-08-21T02:37:18;19.60;99.90
9329;DHT22;4703;48.748;19.142;2022-08-21T02:39:45;19.50;99.90
9329;DHT22;4703;48.748;19.142;2022-08-21T02:42:13;19.50;99.90
9329;DHT22;4703;48.748;19.142;2022-08-21T02:44:40;19.50;99.90
9329;DHT22;4703;48.748;19.142;2022-08-21T02:47:07;19.50;99.90
9329;DHT22;4703;48.748;19.142;2022-08-21T02:49:34;19.50;99.90
9329;DHT22;4703;48.748;19.142;2022-08-21T02:52:01;19.50;99.90
9329;DHT22;4703;48.748;19.142;2022-08-21T02:54:28;19.50;99.90
9329;DHT22;4703;48.748;19.142;2022-08-21T02:56:55;19.50;99.90
9329;DHT22;4703;48.748;19.142;2022-08-21T02:59:22;19.50;99.90
9329;DHT22;4703;48.748;19.142;2022-08-21T03:01:52;19.50;99.90
9329;DHT22;4703;48.748;19.142;2022-08-21T03:04:19;19.50;99.90
9329;DHT22;4703;48.748;19.142;2022-08-21T03:06:46;19.60;99.90
9329;DHT22;4703;48.748;19.142;2022-08-21T03:09:13;19.50;99.90
9329;DHT22;4703;48.748;19.142;2022-08-21T03:11:40;19.60;99.90
9329;DHT22;4703;48.748;19.142;2022-08-21T03:14:07;19.40;99.90
9329;DHT22;4703;48.748;19.142;2022-08-21T03:16:34;19.40;99.90
9329;DHT22;4703;48.748;19.142;2022-08-21T03:19:02;19.50;99.90
9329;DHT22;4703;48.748;19.142;2022-08-21T03:21:29;19.40;99.90
9329;DHT22;4703;48.748;19.142;2022-08-21T03:23:56;19.40;99.90
9329;DHT22;4703;48.748;19.142;2022-08-21T03:26:23;19.40;99.90
9329;DHT22;4703;48.748;19.142;2022-08-21T03:28:53;19.40;99.90
9329;DHT22;4703;48.748;19.142;2022-08-21T03:31:24;19.40;99.90
9329;DHT22;4703;48.748;19.142;2022-08-21T03:33:55;19.40;99.90
9329;DHT22;4703;48.748;19.142;2022-08-21T03:36:23;19.40;99.90
9329;DHT22;4703;48.748;19.142;2022-08-21T03:38:50;19.30;99.90
9329;DHT22;4703;48.748;19.142;2022-08-21T03:41:18;19.30;99.90
9329;DHT22;4703;48.748;19.142;2022-08-21T03:43:45;19.30;99.90
9329;DHT22;4703;48.748;19.142;2022-08-21T03:46:12;19.30;99.90
9329;DHT22;4703;48.748;19.142;2022-08-21T03:48:40;19.30;99.90
9329;DHT22;4703;48.748;19.142;2022-08-21T03:51:07;19.30;99.90
9329;DHT22;4703;48.748;19.142;2022-08-21T03:53:34;19.20;99.90
9329;DHT22;4703;48.748;19.142;2022-08-21T03:56:02;19.40;99.90
9329;DHT22;4703;48.748;19.142;2022-08-21T03:58:30;19.20;99.90
9329;DHT22;4703;48.748;19.142;2022-08-21T04:01:00;19.50;99.90
9329;DHT22;4703;48.748;19.142;2022-08-21T04:03:28;19.20;99.90
9329;DHT22;4703;48.748;19.142;2022-08-21T04:05:55;19.10;99.90
9329;DHT22;4703;48.748;19.142;2022-08-21T04:08:22;19.20;99.90
9329;DHT22;4703;48.748;19.142;2022-08-21T04:10:51;19.10;99.90
9329;DHT22;4703;48.748;19.142;2022-08-21T04:13:20;19.20;99.90
9329;DHT22;4703;48.748;19.142;2022-08-21T04:15:48;19.10;99.90
9329;DHT22;4703;48.748;19.142;2022-08-21T04:18:16;19.10;99.90
9329;DHT22;4703;48.748;19.142;2022-08-21T04:20:45;19.10;99.90
9329;DHT22;4703;48.748;19.142;2022-08-21T04:23:19;19.50;99.90
9329;DHT22;4703;48.748;19.142;2022-08-21T04:25:51;19.10;99.90
9329;DHT22;4703;48.748;19.142;2022-08-21T04:28:22;19.30;99.90
9329;DHT22;4703;48.748;19.142;2022-08-21T04:30:55;19.10;99.90
9329;DHT22;4703;48.748;19.142;2022-08-21T04:33:23;19.10;99.90
9329;DHT22;4703;48.748;19.142;2022-08-21T04:35:51;19.60;99.90
9329;DHT22;4703;48.748;19.142;2022-08-21T04:38:18;19.10;99.90
9329;DHT22;4703;48.748;19.142;2022-08-21T04:40:46;19.10;99.90
9329;DHT22;4703;48.748;19.142;2022-08-21T04:43:15;19.20;99.90
9329;DHT22;4703;48.748;19.142;2022-08-21T04:45:45;19.60;99.90
9329;DHT22;4703;48.748;19.142;2022-08-21T04:48:16;19.20;99.90
9329;DHT22;4703;48.748;19.142;2022-08-21T04:53:55;19.20;99.90
9329;DHT22;4703;48.748;19.142;2022-08-21T04:56:31;19.20;99.90
9329;DHT22;4703;48.748;19.142;2022-08-21T04:59:11;17.80;99.90
9329;DHT22;4703;48.748;19.142;2022-08-21T05:01:42;19.30;99.90
9329;DHT22;4703;48.748;19.142;2022-08-21T05:04:13;19.30;99.90
9329;DHT22;4703;48.748;19.142;2022-08-21T05:06:43;19.40;99.90
9329;DHT22;4703;48.748;19.142;2022-08-21T05:09:14;19.40;99.90
9329;DHT22;4703;48.748;19.142;2022-08-21T05:11:43;19.40;99.90
9329;DHT22;4703;48.748;19.142;2022-08-21T05:14:11;19.40;99.90
9329;DHT22;4703;48.748;19.142;2022-08-21T05:16:39;19.50;99.90
9329;DHT22;4703;48.748;19.142;2022-08-21T05:19:07;19.50;99.90
9329;DHT22;4703;48.748;19.142;2022-08-21T05:21:36;19.50;99.90
9329;DHT22;4703;48.748;19.142;2022-08-21T05:24:05;19.50;99.90
9329;DHT22;4703;48.748;19.142;2022-08-21T05:26:33;19.50;99.90
9329;DHT22;4703;48.748;19.142;2022-08-21T05:29:12;19.60;99.90
9329;DHT22;4703;48.748;19.142;2022-08-21T05:31:42;19.60;99.90
9329;DHT22;4703;48.748;19.142;2022-08-21T05:34:09;19.70;99.90
9329;DHT22;4703;48.748;19.142;2022-08-21T05:36:36;19.70;99.90
9329;DHT22;4703;48.748;19.142;2022-08-21T05:39:04;19.70;99.90
9329;DHT22;4703;48.748;19.142;2022-08-21T05:41:31;19.80;99.90
9329;DHT22;4703;48.748;19.142;2022-08-21T05:44:00;19.80;99.90
9329;DHT22;4703;48.748;19.142;2022-08-21T05:46:27;19.90;99.90
9329;DHT22;4703;48.748;19.142;2022-08-21T05:48:54;19.90;99.90
9329;DHT22;4703;48.748;19.142;2022-08-21T05:51:21;20.00;99.90
9329;DHT22;4703;48.748;19.142;2022-08-21T05:53:48;20.00;99.90
9329;DHT22;4703;48.748;19.142;2022-08-21T05:56:15;20.00;99.90
9329;DHT22;4703;48.748;19.142;2022-08-21T05:58:42;20.00;99.90
9329;DHT22;4703;48.748;19.142;2022-08-21T06:01:10;20.10;99.90
9329;DHT22;4703;48.748;19.142;2022-08-21T06:03:40;20.10;99.90
9329;DHT22;4703;48.748;19.142;2022-08-21T06:06:07;20.10;99.90
9329;DHT22;4703;48.748;19.142;2022-08-21T06:08:34;20.10;99.90
9329;DHT22;4703;48.748;19.142;2022-08-21T06:11:03;20.20;99.90
9329;DHT22;4703;48.748;19.142;2022-08-21T06:13:32;20.20;99.90
9329;DHT22;4703;48.748;19.142;2022-08-21T06:16:10;20.20;99.90
9329;DHT22;4703;48.748;19.142;2022-08-21T06:18:43;20.20;99.90
9329;DHT22;4703;48.748;19.142;2022-08-21T06:21:11;20.30;99.90
9329;DHT22;4703;48.748;19.142;2022-08-21T06:23:41;20.20;99.90
9329;DHT22;4703;48.748;19.142;2022-08-21T06:26:10;20.20;99.90
9329;DHT22;4703;48.748;19.142;2022-08-21T06:28:39;20.20;99.90
9329;DHT22;4703;48.748;19.142;2022-08-21T06:31:26;20.20;99.90
9329;DHT22;4703;48.748;19.142;2022-08-21T06:33:55;20.20;99.90
9329;DHT22;4703;48.748;19.142;2022-08-21T06:36:22;20.20;99.90
9329;DHT22;4703;48.748;19.142;2022-08-21T06:38:49;20.20;99.90
9329;DHT22;4703;48.748;19.142;2022-08-21T06:41:19;20.20;99.90
9329;DHT22;4703;48.748;19.142;2022-08-21T06:43:52;20.20;99.90
9329;DHT22;4703;48.748;19.142;2022-08-21T06:46:20;20.20;99.90
9329;DHT22;4703;48.748;19.142;2022-08-21T06:48:50;20.20;99.90
9329;DHT22;4703;48.748;19.142;2022-08-21T06:51:17;20.20;99.90
9329;DHT22;4703;48.748;19.142;2022-08-21T06:53:45;20.20;99.90
9329;DHT22;4703;48.748;19.142;2022-08-21T06:56:12;20.30;99.90
9329;DHT22;4703;48.748;19.142;2022-08-21T06:58:39;20.30;99.90
9329;DHT22;4703;48.748;19.142;2022-08-21T07:01:06;20.50;99.90
9329;DHT22;4703;48.748;19.142;2022-08-21T07:03:38;20.30;99.90
9329;DHT22;4703;48.748;19.142;2022-08-21T07:06:08;20.30;99.90
9329;DHT22;4703;48.748;19.142;2022-08-21T07:08:37;20.30;99.90
9329;DHT22;4703;48.748;19.142;2022-08-21T07:11:12;20.30;99.90
9329;DHT22;4703;48.748;19.142;2022-08-21T07:13:45;20.30;99.90
9329;DHT22;4703;48.748;19.142;2022-08-21T07:16:12;20.60;99.90
9329;DHT22;4703;48.748;19.142;2022-08-21T07:18:40;21.10;99.90
9329;DHT22;4703;48.748;19.142;2022-08-21T07:21:08;20.30;99.90
9329;DHT22;4703;48.748;19.142;2022-08-21T07:23:38;20.20;99.90
9329;DHT22;4703;48.748;19.142;2022-08-21T07:26:09;20.20;99.90
9329;DHT22;4703;48.748;19.142;2022-08-21T07:28:37;20.20;99.90
9329;DHT22;4703;48.748;19.142;2022-08-21T07:31:05;20.30;99.90
9329;DHT22;4703;48.748;19.142;2022-08-21T07:33:33;20.60;99.90
9329;DHT22;4703;48.748;19.142;2022-08-21T07:36:02;20.30;99.90
9329;DHT22;4703;48.748;19.142;2022-08-21T07:38:29;20.30;99.90
9329;DHT22;4703;48.748;19.142;2022-08-21T07:40:57;20.30;99.90
9329;DHT22;4703;48.748;19.142;2022-08-21T07:43:27;20.30;99.90
9329;DHT22;4703;48.748;19.142;2022-08-21T07:45:55;20.40;99.90
9329;DHT22;4703;48.748;19.142;2022-08-21T07:48:24;20.40;99.90
9329;DHT22;4703;48.748;19.142;2022-08-21T07:50:51;20.50;99.90
9329;DHT22;4703;48.748;19.142;2022-08-21T07:53:18;20.40;99.90
9329;DHT22;4703;48.748;19.142;2022-08-21T07:55:45;20.50;99.90
9329;DHT22;4703;48.748;19.142;2022-08-21T07:58:12;20.50;99.90
9329;DHT22;4703;48.748;19.142;2022-08-21T08:00:40;20.50;99.90
9329;DHT22;4703;48.748;19.142;2022-08-21T08:03:07;20.60;99.90
9329;DHT22;4703;48.748;19.142;2022-08-21T08:05:36;20.80;99.90
9329;DHT22;4703;48.748;19.142;2022-08-21T08:08:04;20.70;99.90
9329;DHT22;4703;48.748;19.142;2022-08-21T08:10:31;20.70;99.90
9329;DHT22;4703;48.748;19.142;2022-08-21T08:12:58;20.70;99.90
9329;DHT22;4703;48.748;19.142;2022-08-21T08:15:27;20.80;99.90
9329;DHT22;4703;48.748;19.142;2022-08-21T08:17:55;20.90;99.90
9329;DHT22;4703;48.748;19.142;2022-08-21T08:20:25;20.90;99.90
9329;DHT22;4703;48.748;19.142;2022-08-21T08:22:55;20.90;99.90
9329;DHT22;4703;48.748;19.142;2022-08-21T08:25:23;21.00;99.90
9329;DHT22;4703;48.748;19.142;2022-08-21T08:27:51;21.10;99.90
9329;DHT22;4703;48.748;19.142;2022-08-21T08:30:20;23.20;99.90
9329;DHT22;4703;48.748;19.142;2022-08-21T08:32:48;21.20;99.90
9329;DHT22;4703;48.748;19.142;2022-08-21T08:35:16;21.20;99.90
9329;DHT22;4703;48.748;19.142;2022-08-21T08:37:44;21.20;99.90
9329;DHT22;4703;48.748;19.142;2022-08-21T08:40:39;21.30;99.90
9329;DHT22;4703;48.748;19.142;2022-08-21T08:43:14;21.30;99.90
9329;DHT22;4703;48.748;19.142;2022-08-21T08:45:45;21.30;99.90
9329;DHT22;4703;48.748;19.142;2022-08-21T08:51:09;21.30;99.90
9329;DHT22;4703;48.748;19.142;2022-08-21T08:54:12;21.30;99.90
9329;DHT22;4703;48.748;19.142;2022-08-21T08:56:45;21.30;99.90
9329;DHT22;4703;48.748;19.142;2022-08-21T08:59:27;21.30;99.90
9329;DHT22;4703;48.748;19.142;2022-08-21T09:02:19;21.30;99.90
9329;DHT22;4703;48.748;19.142;2022-08-21T09:04:48;21.40;99.90
9329;DHT22;4703;48.748;19.142;2022-08-21T09:07:52;21.40;99.90
9329;DHT22;4703;48.748;19.142;2022-08-21T09:10:54;21.40;99.90
9329;DHT22;4703;48.748;19.142;2022-08-21T09:25:22;21.40;99.90
9329;DHT22;4703;48.748;19.142;2022-08-21T09:27:53;21.40;99.90
9329;DHT22;4703;48.748;19.142;2022-08-21T09:30:30;21.40;99.90
9329;DHT22;4703;48.748;19.142;2022-08-21T09:32:58;21.50;99.90
9329;DHT22;4703;48.748;19.142;2022-08-21T09:35:26;21.50;99.90
9329;DHT22;4703;48.748;19.142;2022-08-21T09:37:58;21.50;99.90
9329;DHT22;4703;48.748;19.142;2022-08-21T09:43:17;21.60;99.90
9329;DHT22;4703;48.748;19.142;2022-08-21T09:45:47;21.70;99.90
9329;DHT22;4703;48.748;19.142;2022-08-21T09:48:24;21.70;99.90
9329;DHT22;4703;48.748;19.142;2022-08-21T09:51:28;21.80;99.90
9329;DHT22;4703;48.748;19.142;2022-08-21T09:54:12;21.90;99.90
9329;DHT22;4703;48.748;19.142;2022-08-21T10:00:31;22.00;99.90
9329;DHT22;4703;48.748;19.142;2022-08-21T10:03:10;22.00;99.90
9329;DHT22;4703;48.748;19.142;2022-08-21T10:05:38;22.00;99.90
9329;DHT22;4703;48.748;19.142;2022-08-21T10:08:17;22.00;99.90
9329;DHT22;4703;48.748;19.142;2022-08-21T10:10:45;22.00;99.90
9329;DHT22;4703;48.748;19.142;2022-08-21T10:13:34;22.00;99.90
9329;DHT22;4703;48.748;19.142;2022-08-21T10:16:23;22.00;99.90
9329;DHT22;4703;48.748;19.142;2022-08-21T10:19:19;22.00;99.90
9329;DHT22;4703;48.748;19.142;2022-08-21T10:30:51;19.40;99.90
9329;DHT22;4703;48.748;19.142;2022-08-21T10:33:36;21.90;99.90
9329;DHT22;4703;48.748;19.142;2022-08-21T10:36:21;21.90;99.90
9329;DHT22;4703;48.748;19.142;2022-08-21T10:39:18;21.90;99.90
9329;DHT22;4703;48.748;19.142;2022-08-21T10:42:28;21.90;99.90
9329;DHT22;4703;48.748;19.142;2022-08-21T10:45:39;21.90;99.90
9329;DHT22;4703;48.748;19.142;2022-08-21T10:48:28;21.90;99.90
9329;DHT22;4703;48.748;19.142;2022-08-21T10:51:34;21.90;99.90
9329;DHT22;4703;48.748;19.142;2022-08-21T10:54:25;21.90;99.90
9329;DHT22;4703;48.748;19.142;2022-08-21T10:57:06;22.00;99.90
9329;DHT22;4703;48.748;19.142;2022-08-21T10:59:48;22.00;99.90
9329;DHT22;4703;48.748;19.142;2022-08-21T11:05:33;22.00;99.90
9329;DHT22;4703;48.748;19.142;2022-08-21T11:08:09;21.90;99.90
9329;DHT22;4703;48.748;19.142;2022-08-21T11:10:50;21.90;99.90
9329;DHT22;4703;48.748;19.142;2022-08-21T11:16:29;21.80;99.90
9329;DHT22;4703;48.748;19.142;2022-08-21T11:27:49;21.70;99.90
9329;DHT22;4703;48.748;19.142;2022-08-21T11:30:27;21.70;99.90
9329;DHT22;4703;48.748;19.142;2022-08-21T11:33:18;21.70;99.90
9329;DHT22;4703;48.748;19.142;2022-08-21T11:36:12;21.70;99.90
9329;DHT22;4703;48.748;19.142;2022-08-21T11:45:18;21.60;99.90
9329;DHT22;4703;48.748;19.142;2022-08-21T11:47:58;21.60;99.90
9329;DHT22;4703;48.748;19.142;2022-08-21T11:50:31;21.60;99.90
9329;DHT22;4703;48.748;19.142;2022-08-21T11:53:10;21.50;99.90
9329;DHT22;4703;48.748;19.142;2022-08-21T11:55:53;21.60;99.90
9329;DHT22;4703;48.748;19.142;2022-08-21T11:58:37;21.50;99.90
9329;DHT22;4703;48.748;19.142;2022-08-21T12:01:12;21.50;99.90
9329;DHT22;4703;48.748;19.142;2022-08-21T12:03:53;21.50;99.90
9329;DHT22;4703;48.748;19.142;2022-08-21T12:06:32;21.50;99.90
9329;DHT22;4703;48.748;19.142;2022-08-21T12:09:31;21.60;99.90
9329;DHT22;4703;48.748;19.142;2022-08-21T12:12:33;21.60;99.90
9329;DHT22;4703;48.748;19.142;2022-08-21T12:20:37;21.70;99.90
9329;DHT22;4703;48.748;19.142;2022-08-21T12:23:28;21.70;99.90
9329;DHT22;4703;48.748;19.142;2022-08-21T12:26:11;21.80;99.90
9329;DHT22;4703;48.748;19.142;2022-08-21T12:28:41;21.80;99.90
9329;DHT22;4703;48.748;19.142;2022-08-21T12:31:19;21.80;99.90
9329;DHT22;4703;48.748;19.142;2022-08-21T12:33:56;21.90;99.90
9329;DHT22;4703;48.748;19.142;2022-08-21T12:36:49;21.90;99.90
9329;DHT22;4703;48.748;19.142;2022-08-21T12:39:26;21.90;99.90
9329;DHT22;4703;48.748;19.142;2022-08-21T12:42:14;21.90;99.90
9329;DHT22;4703;48.748;19.142;2022-08-21T12:44:48;21.90;99.90
9329;DHT22;4703;48.748;19.142;2022-08-21T12:47:27;21.90;99.90
9329;DHT22;4703;48.748;19.142;2022-08-21T12:50:13;22.50;99.90
9329;DHT22;4703;48.748;19.142;2022-08-21T12:53:01;22.00;99.90
9329;DHT22;4703;48.748;19.142;2022-08-21T12:55:46;21.90;99.90
9329;DHT22;4703;48.748;19.142;2022-08-21T12:58:23;21.90;99.90
9329;DHT22;4703;48.748;19.142;2022-08-21T13:01:12;22.00;99.90
9329;DHT22;4703;48.748;19.142;2022-08-21T13:03:50;22.00;99.90
9329;DHT22;4703;48.748;19.142;2022-08-21T13:06:36;22.20;99.90
9329;DHT22;4703;48.748;19.142;2022-08-21T13:09:07;22.00;99.90
9329;DHT22;4703;48.748;19.142;2022-08-21T13:11:39;22.10;99.90
9329;DHT22;4703;48.748;19.142;2022-08-21T13:14:35;22.00;99.90
9329;DHT22;4703;48.748;19.142;2022-08-21T13:17:16;22.00;99.90
9329;DHT22;4703;48.748;19.142;2022-08-21T13:20:05;21.90;99.90
9329;DHT22;4703;48.748;19.142;2022-08-21T13:22:45;21.90;99.90
9329;DHT22;4703;48.748;19.142;2022-08-21T13:25:16;21.90;99.90
9329;DHT22;4703;48.748;19.142;2022-08-21T13:27:59;21.80;99.90
9329;DHT22;4703;48.748;19.142;2022-08-21T13:30:28;21.80;99.90
9329;DHT22;4703;48.748;19.142;2022-08-21T13:33:01;21.80;99.90
9329;DHT22;4703;48.748;19.142;2022-08-21T13:35:57;21.90;99.90
9329;DHT22;4703;48.748;19.142;2022-08-21T13:38:31;21.90;99.90
9329;DHT22;4703;48.748;19.142;2022-08-21T13:41:19;21.90;99.90
9329;DHT22;4703;48.748;19.142;2022-08-21T13:43:56;21.90;99.90
9329;DHT22;4703;48.748;19.142;2022-08-21T13:46:33;22.00;99.90
9329;DHT22;4703;48.748;19.142;2022-08-21T13:49:03;22.00;99.90
9329;DHT22;4703;48.748;19.142;2022-08-21T13:51:32;22.00;99.90
9329;DHT22;4703;48.748;19.142;2022-08-21T13:54:15;22.10;99.90
9329;DHT22;4703;48.748;19.142;2022-08-21T13:56:54;22.10;99.90
9329;DHT22;4703;48.748;19.142;2022-08-21T13:59:27;22.10;99.90
9329;DHT22;4703;48.748;19.142;2022-08-21T14:02:18;22.10;99.90
9329;DHT22;4703;48.748;19.142;2022-08-21T14:05:02;22.10;99.90
9329;DHT22;4703;48.748;19.142;2022-08-21T14:07:40;22.10;99.90
9329;DHT22;4703;48.748;19.142;2022-08-21T14:10:19;22.10;99.90
9329;DHT22;4703;48.748;19.142;2022-08-21T14:12:50;22.00;99.90
9329;DHT22;4703;48.748;19.142;2022-08-21T14:15:25;22.10;99.90
9329;DHT22;4703;48.748;19.142;2022-08-21T14:18:13;22.10;99.90
9329;DHT22;4703;48.748;19.142;2022-08-21T14:20:43;22.10;99.90
9329;DHT22;4703;48.748;19.142;2022-08-21T14:23:26;22.00;99.90
9329;DHT22;4703;48.748;19.142;2022-08-21T14:26:02;22.00;99.90
9329;DHT22;4703;48.748;19.142;2022-08-21T14:28:39;22.00;99.90
9329;DHT22;4703;48.748;19.142;2022-08-21T14:31:30;22.00;99.90
9329;DHT22;4703;48.748;19.142;2022-08-21T14:33:59;22.00;99.90
9329;DHT22;4703;48.748;19.142;2022-08-21T14:36:26;22.00;99.90
9329;DHT22;4703;48.748;19.142;2022-08-21T14:38:53;22.00;99.90
9329;DHT22;4703;48.748;19.142;2022-08-21T14:41:25;22.00;99.90
9329;DHT22;4703;48.748;19.142;2022-08-21T14:43:56;22.00;99.90
9329;DHT22;4703;48.748;19.142;2022-08-21T14:46:35;22.00;99.90
9329;DHT22;4703;48.748;19.142;2022-08-21T14:49:23;22.10;99.90
9329;DHT22;4703;48.748;19.142;2022-08-21T14:51:56;22.10;99.90
9329;DHT22;4703;48.748;19.142;2022-08-21T14:54:26;22.10;99.90
9329;DHT22;4703;48.748;19.142;2022-08-21T14:57:04;22.10;99.90
9329;DHT22;4703;48.748;19.142;2022-08-21T14:59:33;22.10;99.90
9329;DHT22;4703;48.748;19.142;2022-08-21T15:02:01;22.10;99.90
9329;DHT22;4703;48.748;19.142;2022-08-21T15:04:30;22.20;99.90
9329;DHT22;4703;48.748;19.142;2022-08-21T15:06:57;22.20;99.90
9329;DHT22;4703;48.748;19.142;2022-08-21T15:09:24;22.20;99.90
9329;DHT22;4703;48.748;19.142;2022-08-21T15:11:53;22.20;99.90
9329;DHT22;4703;48.748;19.142;2022-08-21T15:14:26;22.20;99.90
9329;DHT22;4703;48.748;19.142;2022-08-21T15:16:54;22.10;99.90
9329;DHT22;4703;48.748;19.142;2022-08-21T15:19:22;22.10;99.90
9329;DHT22;4703;48.748;19.142;2022-08-21T15:21:49;22.10;99.90
9329;DHT22;4703;48.748;19.142;2022-08-21T15:24:16;22.10;99.90
9329;DHT22;4703;48.748;19.142;2022-08-21T15:26:43;22.10;99.90
9329;DHT22;4703;48.748;19.142;2022-08-21T15:29:11;22.10;99.90
9329;DHT22;4703;48.748;19.142;2022-08-21T15:31:56;22.10;99.90
9329;DHT22;4703;48.748;19.142;2022-08-21T15:34:27;22.10;99.90
9329;DHT22;4703;48.748;19.142;2022-08-21T15:36:56;22.10;99.90
9329;DHT22;4703;48.748;19.142;2022-08-21T15:39:25;22.00;99.90
9329;DHT22;4703;48.748;19.142;2022-08-21T15:41:57;22.00;99.90
9329;DHT22;4703;48.748;19.142;2022-08-21T15:44:41;21.90;99.90
9329;DHT22;4703;48.748;19.142;2022-08-21T15:47:22;21.90;99.90
9329;DHT22;4703;48.748;19.142;2022-08-21T15:49:54;21.90;99.90
9329;DHT22;4703;48.748;19.142;2022-08-21T15:52:21;22.40;99.90
9329;DHT22;4703;48.748;19.142;2022-08-21T15:54:49;21.80;99.90
9329;DHT22;4703;48.748;19.142;2022-08-21T15:57:19;21.80;99.90
9329;DHT22;4703;48.748;19.142;2022-08-21T15:59:51;21.80;99.90
9329;DHT22;4703;48.748;19.142;2022-08-21T16:02:31;21.80;99.90
9329;DHT22;4703;48.748;19.142;2022-08-21T16:04:58;21.70;99.90
9329;DHT22;4703;48.748;19.142;2022-08-21T16:07:26;21.70;99.90
9329;DHT22;4703;48.748;19.142;2022-08-21T16:09:53;21.70;99.90
9329;DHT22;4703;48.748;19.142;2022-08-21T16:12:25;21.70;99.90
9329;DHT22;4703;48.748;19.142;2022-08-21T16:14:58;21.60;99.90
9329;DHT22;4703;48.748;19.142;2022-08-21T16:17:31;21.60;99.90
9329;DHT22;4703;48.748;19.142;2022-08-21T16:20:02;21.60;99.90
9329;DHT22;4703;48.748;19.142;2022-08-21T16:22:31;21.60;99.90
9329;DHT22;4703;48.748;19.142;2022-08-21T16:25:11;21.50;99.90
9329;DHT22;4703;48.748;19.142;2022-08-21T16:27:41;21.60;99.90
9329;DHT22;4703;48.748;19.142;2022-08-21T16:30:11;21.50;99.90
9329;DHT22;4703;48.748;19.142;2022-08-21T16:32:49;21.50;99.90
9329;DHT22;4703;48.748;19.142;2022-08-21T16:35:19;21.50;99.90
9329;DHT22;4703;48.748;19.142;2022-08-21T16:37:47;21.40;99.90
9329;DHT22;4703;48.748;19.142;2022-08-21T16:40:19;21.40;99.90
9329;DHT22;4703;48.748;19.142;2022-08-21T16:42:52;21.40;99.90
9329;DHT22;4703;48.748;19.142;2022-08-21T16:45:20;21.40;99.90
9329;DHT22;4703;48.748;19.142;2022-08-21T16:47:47;21.40;99.90
9329;DHT22;4703;48.748;19.142;2022-08-21T16:50:19;21.30;99.90
9329;DHT22;4703;48.748;19.142;2022-08-21T16:52:48;21.30;99.90
9329;DHT22;4703;48.748;19.142;2022-08-21T16:55:16;21.30;99.90
9329;DHT22;4703;48.748;19.142;2022-08-21T16:57:43;21.30;99.90
9329;DHT22;4703;48.748;19.142;2022-08-21T17:00:11;21.80;99.90
9329;DHT22;4703;48.748;19.142;2022-08-21T17:02:45;21.20;99.90
9329;DHT22;4703;48.748;19.142;2022-08-21T17:05:15;21.20;99.90
9329;DHT22;4703;48.748;19.142;2022-08-21T17:07:43;21.20;99.90
9329;DHT22;4703;48.748;19.142;2022-08-21T17:10:13;21.20;99.90
9329;DHT22;4703;48.748;19.142;2022-08-21T17:12:42;21.20;99.90
9329;DHT22;4703;48.748;19.142;2022-08-21T17:15:19;21.20;99.90
9329;DHT22;4703;48.748;19.142;2022-08-21T17:17:48;21.10;99.90
9329;DHT22;4703;48.748;19.142;2022-08-21T17:20:18;21.10;99.90
9329;DHT22;4703;48.748;19.142;2022-08-21T17:22:46;21.10;99.90